sensor_id;sensor_type;location;lat;lon;timestamp;temperature;humidity
6333;DHT22;3199;49.102;8.856;2023-09-18T00:00:53;23.20;93.00
6333;DHT22;3199;49.102;8.856;2023-09-18T00:03:20;23.20;93.10
6333;DHT22;3199;49.102;8.856;2023-09-18T00:05:49;23.20;93.10
6333;DHT22;3199;49.102;8.856;2023-09-18T00:08:15;23.20;93.10
6333;DHT22;3199;49.102;8.856;2023-09-18T00:10:42;23.20;93.10
6333;DHT22;3199;49.102;8.856;2023-09-18T00:13:08;23.20;93.20
6333;DHT22;3199;49.102;8.856;2023-09-18T00:15:33;23.20;93.20
6333;DHT22;3199;49.102;8.856;2023-09-18T00:17:59;23.30;93.20
6333;DHT22;3199;49.102;8.856;2023-09-18T00:20:24;23.30;93.20
6333;DHT22;3199;49.102;8.856;2023-09-18T00:22:54;23.30;93.30
6333;DHT22;3199;49.102;8.856;2023-09-18T00:25:21;23.30;93.20
6333;DHT22;3199;49.102;8.856;2023-09-18T00:27:46;23.40;93.20
6333;DHT22;3199;49.102;8.856;2023-09-18T00:30:12;23.40;93.10
6333;DHT22;3199;49.102;8.856;2023-09-18T00:32:37;23.40;93.00
6333;DHT22;3199;49.102;8.856;2023-09-18T00:35:03;23.50;93.00
6333;DHT22;3199;49.102;8.856;2023-09-18T00:37:29;23.50;93.00
6333;DHT22;3199;49.102;8.856;2023-09-18T00:39:54;23.50;93.00
6333;DHT22;3199;49.102;8.856;2023-09-18T00:42:20;23.50;92.90
6333;DHT22;3199;49.102;8.856;2023-09-18T00:44:48;23.50;92.90
6333;DHT22;3199;49.102;8.856;2023-09-18T00:47:14;23.60;92.90
6333;DHT22;3199;49.102;8.856;2023-09-18T00:49:41;23.60;92.90
6333;DHT22;3199;49.102;8.856;2023-09-18T00:52:08;23.60;93.00
6333;DHT22;3199;49.102;8.856;2023-09-18T00:54:35;23.50;92.90
6333;DHT22;3199;49.102;8.856;2023-09-18T00:57:03;23.60;93.20
6333;DHT22;3199;49.102;8.856;2023-09-18T00:59:28;23.50;93.20
6333;DHT22;3199;49.102;8.856;2023-09-18T01:01:55;23.40;93.40
6333;DHT22;3199;49.102;8.856;2023-09-18T01:04:21;23.40;93.50
6333;DHT22;3199;49.102;8.856;2023-09-18T01:06:47;23.40;93.60
6333;DHT22;3199;49.102;8.856;2023-09-18T01:09:17;23.30;93.60
6333;DHT22;3199;49.102;8.856;2023-09-18T01:14:28;23.30;93.70
6333;DHT22;3199;49.102;8.856;2023-09-18T01:16:58;23.30;93.70
6333;DHT22;3199;49.102;8.856;2023-09-18T01:19:44;23.30;93.70
6333;DHT22;3199;49.102;8.856;2023-09-18T01:22:12;23.30;93.90
6333;DHT22;3199;49.102;8.856;2023-09-18T01:24:39;23.20;93.90
6333;DHT22;3199;49.102;8.856;2023-09-18T01:27:06;23.30;94.10
6333;DHT22;3199;49.102;8.856;2023-09-18T01:29:32;23.20;93.60
6333;DHT22;3199;49.102;8.856;2023-09-18T01:31:58;23.20;93.60
6333;DHT22;3199;49.102;8.856;2023-09-18T01:34:30;23.30;93.70
6333;DHT22;3199;49.102;8.856;2023-09-18T01:36:58;23.30;93.50
6333;DHT22;3199;49.102;8.856;2023-09-18T01:39:25;23.40;93.30
6333;DHT22;3199;49.102;8.856;2023-09-18T01:41:56;23.50;93.10
6333;DHT22;3199;49.102;8.856;2023-09-18T01:44:23;23.50;93.20
6333;DHT22;3199;49.102;8.856;2023-09-18T01:46:49;23.50;93.10
6333;DHT22;3199;49.102;8.856;2023-09-18T01:49:17;23.50;93.10
6333;DHT22;3199;49.102;8.856;2023-09-18T01:51:51;23.50;93.10
6333;DHT22;3199;49.102;8.856;2023-09-18T01:54:17;23.60;93.20
6333;DHT22;3199;49.102;8.856;2023-09-18T01:56:42;23.50;93.20
6333;DHT22;3199;49.102;8.856;2023-09-18T01:59:08;23.50;93.50
6333;DHT22;3199;49.102;8.856;2023-09-18T02:01:33;23.50;93.80
6333;DHT22;3199;49.102;8.856;2023-09-18T02:04:00;23.50;94.00
6333;DHT22;3199;49.102;8.856;2023-09-18T02:06:25;23.40;94.20
6333;DHT22;3199;49.102;8.856;2023-09-18T02:08:51;23.30;94.50
6333;DHT22;3199;49.102;8.856;2023-09-18T02:11:16;23.20;94.40
6333;DHT22;3199;49.102;8.856;2023-09-18T02:13:42;23.10;94.50
6333;DHT22;3199;49.102;8.856;2023-09-18T02:16:07;23.10;94.90
6333;DHT22;3199;49.102;8.856;2023-09-18T02:18:33;23.10;95.80
6333;DHT22;3199;49.102;8.856;2023-09-18T02:20:59;23.10;97.40
6333;DHT22;3199;49.102;8.856;2023-09-18T02:23:24;23.00;97.90
6333;DHT22;3199;49.102;8.856;2023-09-18T02:25:59;22.90;99.70
6333;DHT22;3199;49.102;8.856;2023-09-18T02:28:24;22.70;99.90
6333;DHT22;3199;49.102;8.856;2023-09-18T02:30:51;22.40;99.90
6333;DHT22;3199;49.102;8.856;2023-09-18T02:33:16;22.10;99.90
6333;DHT22;3199;49.102;8.856;2023-09-18T02:35:42;22.00;99.90
6333;DHT22;3199;49.102;8.856;2023-09-18T02:38:10;21.90;99.90
6333;DHT22;3199;49.102;8.856;2023-09-18T02:40:36;21.80;99.90
6333;DHT22;3199;49.102;8.856;2023-09-18T02:43:02;21.80;99.90
6333;DHT22;3199;49.102;8.856;2023-09-18T02:45:27;21.70;99.90
6333;DHT22;3199;49.102;8.856;2023-09-18T02:47:53;21.70;99.90
6333;DHT22;3199;49.102;8.856;2023-09-18T02:50:18;21.70;99.90
6333;DHT22;3199;49.102;8.856;2023-09-18T02:52:44;21.60;99.90
6333;DHT22;3199;49.102;8.856;2023-09-18T02:55:10;21.60;99.90
6333;DHT22;3199;49.102;8.856;2023-09-18T02:57:35;21.50;99.90
6333;DHT22;3199;49.102;8.856;2023-09-18T03:00:01;21.50;99.90
6333;DHT22;3199;49.102;8.856;2023-09-18T03:02:27;21.60;99.90
6333;DHT22;3199;49.102;8.856;2023-09-18T03:04:52;21.70;99.90
6333;DHT22;3199;49.102;8.856;2023-09-18T03:07:18;21.70;99.90
6333;DHT22;3199;49.102;8.856;2023-09-18T03:09:43;21.80;99.90
6333;DHT22;3199;49.102;8.856;2023-09-18T03:12:09;21.80;99.90
6333;DHT22;3199;49.102;8.856;2023-09-18T03:14:34;21.90;99.90
6333;DHT22;3199;49.102;8.856;2023-09-18T03:17:00;21.90;99.90
6333;DHT22;3199;49.102;8.856;2023-09-18T03:19:25;21.90;99.90
6333;DHT22;3199;49.102;8.856;2023-09-18T03:21:52;21.90;99.90
6333;DHT22;3199;49.102;8.856;2023-09-18T03:24:17;22.00;99.90
6333;DHT22;3199;49.102;8.856;2023-09-18T03:26:43;22.00;99.90
6333;DHT22;3199;49.102;8.856;2023-09-18T03:29:09;21.90;99.90
6333;DHT22;3199;49.102;8.856;2023-09-18T03:31:35;21.90;99.90
6333;DHT22;3199;49.102;8.856;2023-09-18T03:34:00;21.90;99.90
6333;DHT22;3199;49.102;8.856;2023-09-18T03:36:26;21.90;99.90
6333;DHT22;3199;49.102;8.856;2023-09-18T03:38:51;21.70;99.90
6333;DHT22;3199;49.102;8.856;2023-09-18T03:41:17;21.60;99.90
6333;DHT22;3199;49.102;8.856;2023-09-18T03:43:42;21.50;99.90
6333;DHT22;3199;49.102;8.856;2023-09-18T03:46:08;21.40;99.90
6333;DHT22;3199;49.102;8.856;2023-09-18T03:48:34;21.40;99.90
6333;DHT22;3199;49.102;8.856;2023-09-18T03:51:06;21.40;99.90
6333;DHT22;3199;49.102;8.856;2023-09-18T03:53:33;21.40;99.90
6333;DHT22;3199;49.102;8.856;2023-09-18T03:55:59;21.40;99.90
6333;DHT22;3199;49.102;8.856;2023-09-18T03:58:24;21.40;99.90
6333;DHT22;3199;49.102;8.856;2023-09-18T04:00:50;21.50;99.90
6333;DHT22;3199;49.102;8.856;2023-09-18T04:03:16;21.60;99.90
6333;DHT22;3199;49.102;8.856;2023-09-18T04:05:42;21.60;99.90
6333;DHT22;3199;49.102;8.856;2023-09-18T04:08:08;21.50;99.90
6333;DHT22;3199;49.102;8.856;2023-09-18T04:10:33;21.30;99.90
6333;DHT22;3199;49.102;8.856;2023-09-18T04:13:00;21.20;99.90
6333;DHT22;3199;49.102;8.856;2023-09-18T04:15:25;21.20;99.90
6333;DHT22;3199;49.102;8.856;2023-09-18T04:17:53;21.30;99.90
6333;DHT22;3199;49.102;8.856;2023-09-18T04:20:18;21.30;99.90
6333;DHT22;3199;49.102;8.856;2023-09-18T04:22:45;21.20;99.90
6333;DHT22;3199;49.102;8.856;2023-09-18T04:25:15;21.00;99.90
6333;DHT22;3199;49.102;8.856;2023-09-18T04:27:40;20.80;99.90
6333;DHT22;3199;49.102;8.856;2023-09-18T04:30:07;20.50;99.90
6333;DHT22;3199;49.102;8.856;2023-09-18T04:32:37;20.40;99.90
6333;DHT22;3199;49.102;8.856;2023-09-18T04:35:03;20.30;99.90
6333;DHT22;3199;49.102;8.856;2023-09-18T04:37:31;20.20;99.90
6333;DHT22;3199;49.102;8.856;2023-09-18T04:39:57;20.10;99.90
6333;DHT22;3199;49.102;8.856;2023-09-18T04:42:23;20.10;99.90
6333;DHT22;3199;49.102;8.856;2023-09-18T04:44:48;20.20;99.90
6333;DHT22;3199;49.102;8.856;2023-09-18T04:47:14;20.20;99.90
6333;DHT22;3199;49.102;8.856;2023-09-18T04:49:40;20.20;99.90
6333;DHT22;3199;49.102;8.856;2023-09-18T04:52:06;20.20;99.90
6333;DHT22;3199;49.102;8.856;2023-09-18T04:54:31;20.20;99.90
6333;DHT22;3199;49.102;8.856;2023-09-18T04:56:56;20.20;99.90
6333;DHT22;3199;49.102;8.856;2023-09-18T04:59:22;20.20;99.90
6333;DHT22;3199;49.102;8.856;2023-09-18T05:01:47;20.20;99.90
6333;DHT22;3199;49.102;8.856;2023-09-18T05:04:13;20.20;99.90
6333;DHT22;3199;49.102;8.856;2023-09-18T05:06:39;20.20;99.90
6333;DHT22;3199;49.102;8.856;2023-09-18T05:09:05;20.20;99.90
6333;DHT22;3199;49.102;8.856;2023-09-18T05:11:31;20.20;99.90
6333;DHT22;3199;49.102;8.856;2023-09-18T05:13:57;20.20;99.90
6333;DHT22;3199;49.102;8.856;2023-09-18T05:16:22;20.20;99.90
6333;DHT22;3199;49.102;8.856;2023-09-18T05:18:48;20.20;99.90
6333;DHT22;3199;49.102;8.856;2023-09-18T05:21:13;20.20;99.90
6333;DHT22;3199;49.102;8.856;2023-09-18T05:23:39;20.20;99.90
6333;DHT22;3199;49.102;8.856;2023-09-18T05:26:04;20.20;99.90
6333;DHT22;3199;49.102;8.856;2023-09-18T05:28:30;20.20;99.90
6333;DHT22;3199;49.102;8.856;2023-09-18T05:30:55;20.10;99.90
6333;DHT22;3199;49.102;8.856;2023-09-18T05:33:21;20.10;99.90
6333;DHT22;3199;49.102;8.856;2023-09-18T05:35:46;20.10;99.90
6333;DHT22;3199;49.102;8.856;2023-09-18T05:38:13;20.10;99.90
6333;DHT22;3199;49.102;8.856;2023-09-18T05:40:39;20.00;99.90
6333;DHT22;3199;49.102;8.856;2023-09-18T05:43:05;20.00;99.90
6333;DHT22;3199;49.102;8.856;2023-09-18T05:45:31;20.00;99.90
6333;DHT22;3199;49.102;8.856;2023-09-18T05:47:58;20.10;99.90
6333;DHT22;3199;49.102;8.856;2023-09-18T05:50:33;20.10;99.90
6333;DHT22;3199;49.102;8.856;2023-09-18T05:53:00;20.20;99.90
6333;DHT22;3199;49.102;8.856;2023-09-18T05:55:32;20.20;99.90
6333;DHT22;3199;49.102;8.856;2023-09-18T05:57:58;20.20;99.90
6333;DHT22;3199;49.102;8.856;2023-09-18T06:00:24;20.20;99.90
6333;DHT22;3199;49.102;8.856;2023-09-18T06:02:50;20.20;99.90
6333;DHT22;3199;49.102;8.856;2023-09-18T06:05:19;20.30;99.90
6333;DHT22;3199;49.102;8.856;2023-09-18T06:07:48;20.40;99.90
6333;DHT22;3199;49.102;8.856;2023-09-18T06:10:14;20.50;99.90
6333;DHT22;3199;49.102;8.856;2023-09-18T06:12:40;20.60;99.90
6333;DHT22;3199;49.102;8.856;2023-09-18T06:15:09;20.70;99.90
6333;DHT22;3199;49.102;8.856;2023-09-18T06:17:39;20.80;99.90
6333;DHT22;3199;49.102;8.856;2023-09-18T06:20:05;20.90;99.90
6333;DHT22;3199;49.102;8.856;2023-09-18T06:22:34;21.00;99.90
6333;DHT22;3199;49.102;8.856;2023-09-18T06:25:00;21.10;99.90
6333;DHT22;3199;49.102;8.856;2023-09-18T06:27:25;21.10;99.90
6333;DHT22;3199;49.102;8.856;2023-09-18T06:29:51;21.10;99.90
6333;DHT22;3199;49.102;8.856;2023-09-18T06:32:16;21.10;99.90
6333;DHT22;3199;49.102;8.856;2023-09-18T06:34:42;21.00;99.90
6333;DHT22;3199;49.102;8.856;2023-09-18T06:37:09;20.90;99.90
6333;DHT22;3199;49.102;8.856;2023-09-18T06:39:38;20.90;99.90
6333;DHT22;3199;49.102;8.856;2023-09-18T06:42:03;20.90;99.90
6333;DHT22;3199;49.102;8.856;2023-09-18T06:44:29;20.90;99.90
6333;DHT22;3199;49.102;8.856;2023-09-18T06:46:54;20.90;99.90
6333;DHT22;3199;49.102;8.856;2023-09-18T06:49:20;20.90;99.90
6333;DHT22;3199;49.102;8.856;2023-09-18T06:51:45;20.90;99.90
6333;DHT22;3199;49.102;8.856;2023-09-18T06:54:11;20.90;99.90
6333;DHT22;3199;49.102;8.856;2023-09-18T06:56:37;20.80;99.90
6333;DHT22;3199;49.102;8.856;2023-09-18T06:59:02;20.80;99.90
6333;DHT22;3199;49.102;8.856;2023-09-18T07:01:28;20.70;99.90
6333;DHT22;3199;49.102;8.856;2023-09-18T07:03:53;20.70;99.90
6333;DHT22;3199;49.102;8.856;2023-09-18T07:06:19;20.70;99.90
6333;DHT22;3199;49.102;8.856;2023-09-18T07:08:48;20.70;99.90
6333;DHT22;3199;49.102;8.856;2023-09-18T07:11:15;20.70;99.90
6333;DHT22;3199;49.102;8.856;2023-09-18T07:13:41;20.60;99.90
6333;DHT22;3199;49.102;8.856;2023-09-18T07:16:07;20.60;99.90
6333;DHT22;3199;49.102;8.856;2023-09-18T07:18:33;20.50;99.90
6333;DHT22;3199;49.102;8.856;2023-09-18T07:20:58;20.40;99.90
6333;DHT22;3199;49.102;8.856;2023-09-18T07:23:24;20.30;99.90
6333;DHT22;3199;49.102;8.856;2023-09-18T07:25:49;20.30;99.90
6333;DHT22;3199;49.102;8.856;2023-09-18T07:28:15;20.30;99.90
6333;DHT22;3199;49.102;8.856;2023-09-18T07:30:43;20.30;99.90
6333;DHT22;3199;49.102;8.856;2023-09-18T07:33:09;20.20;99.90
6333;DHT22;3199;49.102;8.856;2023-09-18T07:35:35;20.20;99.90
6333;DHT22;3199;49.102;8.856;2023-09-18T07:38:01;20.10;99.90
6333;DHT22;3199;49.102;8.856;2023-09-18T07:40:26;20.10;99.90
6333;DHT22;3199;49.102;8.856;2023-09-18T07:42:53;20.10;99.90
6333;DHT22;3199;49.102;8.856;2023-09-18T07:45:18;20.10;99.90
6333;DHT22;3199;49.102;8.856;2023-09-18T07:47:44;20.10;99.90
6333;DHT22;3199;49.102;8.856;2023-09-18T07:50:10;20.10;99.90
6333;DHT22;3199;49.102;8.856;2023-09-18T07:52:36;20.10;99.90
6333;DHT22;3199;49.102;8.856;2023-09-18T07:55:01;20.10;99.90
6333;DHT22;3199;49.102;8.856;2023-09-18T07:57:27;20.20;99.90
6333;DHT22;3199;49.102;8.856;2023-09-18T07:59:58;20.20;99.90
6333;DHT22;3199;49.102;8.856;2023-09-18T08:02:24;20.20;99.90
6333;DHT22;3199;49.102;8.856;2023-09-18T08:04:50;20.30;99.90
6333;DHT22;3199;49.102;8.856;2023-09-18T08:07:18;20.30;99.90
6333;DHT22;3199;49.102;8.856;2023-09-18T08:09:44;20.30;99.90
6333;DHT22;3199;49.102;8.856;2023-09-18T08:12:10;20.40;99.90
6333;DHT22;3199;49.102;8.856;2023-09-18T08:14:35;20.40;99.90
6333;DHT22;3199;49.102;8.856;2023-09-18T08:17:02;20.40;99.90
6333;DHT22;3199;49.102;8.856;2023-09-18T08:19:29;20.50;99.90
6333;DHT22;3199;49.102;8.856;2023-09-18T08:21:56;20.50;99.90
6333;DHT22;3199;49.102;8.856;2023-09-18T08:24:22;20.60;99.90
6333;DHT22;3199;49.102;8.856;2023-09-18T08:26:48;20.70;99.90
6333;DHT22;3199;49.102;8.856;2023-09-18T08:29:14;20.80;99.90
6333;DHT22;3199;49.102;8.856;2023-09-18T08:31:39;20.80;99.90
6333;DHT22;3199;49.102;8.856;2023-09-18T08:34:05;20.80;99.90
6333;DHT22;3199;49.102;8.856;2023-09-18T08:36:30;20.80;99.90
6333;DHT22;3199;49.102;8.856;2023-09-18T08:38:57;20.80;99.90
6333;DHT22;3199;49.102;8.856;2023-09-18T08:41:24;20.80;99.90
6333;DHT22;3199;49.102;8.856;2023-09-18T08:44:02;20.90;99.90
6333;DHT22;3199;49.102;8.856;2023-09-18T08:46:29;21.00;99.90
6333;DHT22;3199;49.102;8.856;2023-09-18T08:48:56;21.10;99.90
6333;DHT22;3199;49.102;8.856;2023-09-18T08:51:23;21.20;99.90
6333;DHT22;3199;49.102;8.856;2023-09-18T08:53:48;21.30;99.90
6333;DHT22;3199;49.102;8.856;2023-09-18T08:56:15;21.30;99.90
6333;DHT22;3199;49.102;8.856;2023-09-18T08:58:43;21.30;99.90
6333;DHT22;3199;49.102;8.856;2023-09-18T09:01:10;21.20;99.90
6333;DHT22;3199;49.102;8.856;2023-09-18T09:03:39;21.20;99.90
6333;DHT22;3199;49.102;8.856;2023-09-18T09:06:09;21.10;99.90
6333;DHT22;3199;49.102;8.856;2023-09-18T09:08:35;21.10;99.90
6333;DHT22;3199;49.102;8.856;2023-09-18T09:11:02;21.00;99.90
6333;DHT22;3199;49.102;8.856;2023-09-18T09:13:27;20.90;99.90
6333;DHT22;3199;49.102;8.856;2023-09-18T09:15:54;20.90;99.90
6333;DHT22;3199;49.102;8.856;2023-09-18T09:18:28;20.80;99.90
6333;DHT22;3199;49.102;8.856;2023-09-18T09:23:27;20.70;99.90
6333;DHT22;3199;49.102;8.856;2023-09-18T09:25:53;20.60;99.90
6333;DHT22;3199;49.102;8.856;2023-09-18T09:28:31;20.60;99.90
6333;DHT22;3199;49.102;8.856;2023-09-18T09:31:01;20.60;99.90
6333;DHT22;3199;49.102;8.856;2023-09-18T09:33:28;20.60;99.90
6333;DHT22;3199;49.102;8.856;2023-09-18T09:35:55;20.60;99.90
6333;DHT22;3199;49.102;8.856;2023-09-18T09:38:28;20.60;99.90
6333;DHT22;3199;49.102;8.856;2023-09-18T09:40:54;20.80;99.90
6333;DHT22;3199;49.102;8.856;2023-09-18T09:43:20;20.90;99.90
6333;DHT22;3199;49.102;8.856;2023-09-18T09:45:46;21.00;99.90
6333;DHT22;3199;49.102;8.856;2023-09-18T09:48:12;21.10;99.90
6333;DHT22;3199;49.102;8.856;2023-09-18T09:50:46;21.20;99.90
6333;DHT22;3199;49.102;8.856;2023-09-18T09:53:12;21.30;99.90
6333;DHT22;3199;49.102;8.856;2023-09-18T09:55:38;21.30;99.90
6333;DHT22;3199;49.102;8.856;2023-09-18T09:58:06;21.20;99.90
6333;DHT22;3199;49.102;8.856;2023-09-18T10:00:33;21.20;99.90
6333;DHT22;3199;49.102;8.856;2023-09-18T10:03:07;21.20;99.90
6333;DHT22;3199;49.102;8.856;2023-09-18T10:05:39;21.20;99.90
6333;DHT22;3199;49.102;8.856;2023-09-18T10:08:10;21.20;99.90
6333;DHT22;3199;49.102;8.856;2023-09-18T10:11:06;21.30;99.90
6333;DHT22;3199;49.102;8.856;2023-09-18T10:13:45;21.40;99.90
6333;DHT22;3199;49.102;8.856;2023-09-18T10:16:13;21.50;99.90
6333;DHT22;3199;49.102;8.856;2023-09-18T10:21:41;21.50;99.90
6333;DHT22;3199;49.102;8.856;2023-09-18T10:24:19;21.50;99.90
6333;DHT22;3199;49.102;8.856;2023-09-18T10:26:57;21.60;99.90
6333;DHT22;3199;49.102;8.856;2023-09-18T10:29:24;21.70;99.90
6333;DHT22;3199;49.102;8.856;2023-09-18T10:31:51;21.80;99.90
6333;DHT22;3199;49.102;8.856;2023-09-18T10:34:18;21.90;99.90
6333;DHT22;3199;49.102;8.856;2023-09-18T10:36:47;22.00;99.90
6333;DHT22;3199;49.102;8.856;2023-09-18T10:39:13;22.20;99.90
6333;DHT22;3199;49.102;8.856;2023-09-18T10:41:39;22.20;99.90
6333;DHT22;3199;49.102;8.856;2023-09-18T10:44:06;22.10;99.90
6333;DHT22;3199;49.102;8.856;2023-09-18T10:46:32;22.10;99.90
6333;DHT22;3199;49.102;8.856;2023-09-18T10:49:00;22.10;99.90
6333;DHT22;3199;49.102;8.856;2023-09-18T10:51:26;22.00;99.90
6333;DHT22;3199;49.102;8.856;2023-09-18T10:53:52;21.80;99.90
6333;DHT22;3199;49.102;8.856;2023-09-18T10:56:21;21.80;99.90
6333;DHT22;3199;49.102;8.856;2023-09-18T10:58:56;21.80;99.90
6333;DHT22;3199;49.102;8.856;2023-09-18T11:01:23;21.70;99.90
6333;DHT22;3199;49.102;8.856;2023-09-18T11:03:50;21.70;99.90
6333;DHT22;3199;49.102;8.856;2023-09-18T11:06:16;21.80;99.90
6333;DHT22;3199;49.102;8.856;2023-09-18T11:08:45;21.90;99.90
6333;DHT22;3199;49.102;8.856;2023-09-18T11:11:12;22.00;99.90
6333;DHT22;3199;49.102;8.856;2023-09-18T11:13:41;22.20;99.90
6333;DHT22;3199;49.102;8.856;2023-09-18T11:18:41;22.40;99.90
6333;DHT22;3199;49.102;8.856;2023-09-18T11:21:08;22.50;99.90
6333;DHT22;3199;49.102;8.856;2023-09-18T11:23:36;22.60;99.90
6333;DHT22;3199;49.102;8.856;2023-09-18T11:26:11;22.70;99.90
6333;DHT22;3199;49.102;8.856;2023-09-18T11:28:37;22.70;99.90
6333;DHT22;3199;49.102;8.856;2023-09-18T11:31:04;22.80;99.90
6333;DHT22;3199;49.102;8.856;2023-09-18T11:33:32;22.80;99.90
6333;DHT22;3199;49.102;8.856;2023-09-18T11:38:33;23.00;99.90
6333;DHT22;3199;49.102;8.856;2023-09-18T11:41:26;23.00;99.90
6333;DHT22;3199;49.102;8.856;2023-09-18T11:43:52;23.00;99.90
6333;DHT22;3199;49.102;8.856;2023-09-18T11:46:19;23.10;99.90
6333;DHT22;3199;49.102;8.856;2023-09-18T11:48:47;23.10;99.90
6333;DHT22;3199;49.102;8.856;2023-09-18T11:51:21;23.20;99.90
6333;DHT22;3199;49.102;8.856;2023-09-18T11:53:50;23.20;99.90
6333;DHT22;3199;49.102;8.856;2023-09-18T11:56:17;23.30;99.90
6333;DHT22;3199;49.102;8.856;2023-09-18T11:58:47;23.40;99.90
6333;DHT22;3199;49.102;8.856;2023-09-18T12:01:14;23.60;99.90
6333;DHT22;3199;49.102;8.856;2023-09-18T12:03:41;23.60;99.90
6333;DHT22;3199;49.102;8.856;2023-09-18T12:06:07;23.50;99.90
6333;DHT22;3199;49.102;8.856;2023-09-18T12:08:35;23.40;99.90
6333;DHT22;3199;49.102;8.856;2023-09-18T12:11:04;23.40;99.90
6333;DHT22;3199;49.102;8.856;2023-09-18T12:13:34;23.30;99.90
6333;DHT22;3199;49.102;8.856;2023-09-18T12:16:00;23.30;99.90
6333;DHT22;3199;49.102;8.856;2023-09-18T12:18:27;23.30;99.90
6333;DHT22;3199;49.102;8.856;2023-09-18T12:20:55;23.40;99.90
6333;DHT22;3199;49.102;8.856;2023-09-18T12:23:21;23.30;99.90
6333;DHT22;3199;49.102;8.856;2023-09-18T12:25:49;23.20;99.90
6333;DHT22;3199;49.102;8.856;2023-09-18T12:28:15;23.20;99.90
6333;DHT22;3199;49.102;8.856;2023-09-18T12:30:42;23.10;99.90
6333;DHT22;3199;49.102;8.856;2023-09-18T12:33:08;23.10;99.90
6333;DHT22;3199;49.102;8.856;2023-09-18T12:35:34;23.20;99.90
6333;DHT22;3199;49.102;8.856;2023-09-18T12:38:00;23.40;99.90
6333;DHT22;3199;49.102;8.856;2023-09-18T12:40:30;23.40;99.90
6333;DHT22;3199;49.102;8.856;2023-09-18T12:42:58;23.40;99.90
6333;DHT22;3199;49.102;8.856;2023-09-18T12:45:25;23.30;99.90
6333;DHT22;3199;49.102;8.856;2023-09-18T12:47:53;23.30;99.90
6333;DHT22;3199;49.102;8.856;2023-09-18T12:50:19;23.40;99.90
6333;DHT22;3199;49.102;8.856;2023-09-18T12:52:45;23.50;99.90
6333;DHT22;3199;49.102;8.856;2023-09-18T12:55:27;23.60;99.90
6333;DHT22;3199;49.102;8.856;2023-09-18T12:57:53;23.60;99.90
6333;DHT22;3199;49.102;8.856;2023-09-18T13:00:20;23.50;99.90
6333;DHT22;3199;49.102;8.856;2023-09-18T13:02:52;23.50;99.90
6333;DHT22;3199;49.102;8.856;2023-09-18T13:05:21;23.70;99.90
6333;DHT22;3199;49.102;8.856;2023-09-18T13:07:51;23.80;99.90
6333;DHT22;3199;49.102;8.856;2023-09-18T13:10:17;23.80;99.90
6333;DHT22;3199;49.102;8.856;2023-09-18T13:12:49;23.90;99.90
6333;DHT22;3199;49.102;8.856;2023-09-18T13:15:29;23.80;99.90
6333;DHT22;3199;49.102;8.856;2023-09-18T13:17:59;23.60;99.90
6333;DHT22;3199;49.102;8.856;2023-09-18T13:20:29;23.50;99.90
6333;DHT22;3199;49.102;8.856;2023-09-18T13:22:59;23.50;99.90
6333;DHT22;3199;49.102;8.856;2023-09-18T13:25:32;23.40;99.90
6333;DHT22;3199;49.102;8.856;2023-09-18T13:28:05;23.40;99.90
6333;DHT22;3199;49.102;8.856;2023-09-18T13:30:31;23.40;99.90
6333;DHT22;3199;49.102;8.856;2023-09-18T13:33:04;23.40;99.90
6333;DHT22;3199;49.102;8.856;2023-09-18T13:35:32;23.60;99.90
6333;DHT22;3199;49.102;8.856;2023-09-18T13:37:57;23.80;99.90
6333;DHT22;3199;49.102;8.856;2023-09-18T13:40:23;23.90;99.90
6333;DHT22;3199;49.102;8.856;2023-09-18T13:42:49;23.90;99.90
6333;DHT22;3199;49.102;8.856;2023-09-18T13:45:14;24.00;99.90
6333;DHT22;3199;49.102;8.856;2023-09-18T13:47:41;23.80;99.90
6333;DHT22;3199;49.102;8.856;2023-09-18T13:50:07;23.90;99.90
6333;DHT22;3199;49.102;8.856;2023-09-18T13:52:34;23.90;99.90
6333;DHT22;3199;49.102;8.856;2023-09-18T13:55:04;23.90;99.90
6333;DHT22;3199;49.102;8.856;2023-09-18T13:57:31;23.80;99.90
6333;DHT22;3199;49.102;8.856;2023-09-18T13:59:57;23.80;99.90
6333;DHT22;3199;49.102;8.856;2023-09-18T14:02:22;23.80;99.90
6333;DHT22;3199;49.102;8.856;2023-09-18T14:04:52;23.80;99.90
6333;DHT22;3199;49.102;8.856;2023-09-18T14:07:18;23.80;99.90
6333;DHT22;3199;49.102;8.856;2023-09-18T14:09:43;23.80;99.90
6333;DHT22;3199;49.102;8.856;2023-09-18T14:12:11;23.80;99.90
6333;DHT22;3199;49.102;8.856;2023-09-18T14:14:37;23.70;99.90
6333;DHT22;3199;49.102;8.856;2023-09-18T14:17:03;23.70;99.90
6333;DHT22;3199;49.102;8.856;2023-09-18T14:19:29;23.70;99.90
6333;DHT22;3199;49.102;8.856;2023-09-18T14:21:55;23.70;99.90
6333;DHT22;3199;49.102;8.856;2023-09-18T14:24:21;23.70;99.90
6333;DHT22;3199;49.102;8.856;2023-09-18T14:26:50;23.70;99.90
6333;DHT22;3199;49.102;8.856;2023-09-18T14:29:16;23.70;99.90
6333;DHT22;3199;49.102;8.856;2023-09-18T14:31:41;23.70;99.90
6333;DHT22;3199;49.102;8.856;2023-09-18T14:34:08;23.60;99.90
6333;DHT22;3199;49.102;8.856;2023-09-18T14:36:34;23.70;99.90
6333;DHT22;3199;49.102;8.856;2023-09-18T14:39:03;23.80;99.90
6333;DHT22;3199;49.102;8.856;2023-09-18T14:41:28;23.90;99.90
6333;DHT22;3199;49.102;8.856;2023-09-18T14:43:54;23.90;99.90
6333;DHT22;3199;49.102;8.856;2023-09-18T14:46:23;23.90;99.90
6333;DHT22;3199;49.102;8.856;2023-09-18T14:48:48;23.90;99.90
6333;DHT22;3199;49.102;8.856;2023-09-18T14:51:14;23.90;99.90
6333;DHT22;3199;49.102;8.856;2023-09-18T14:53:39;23.80;99.90
6333;DHT22;3199;49.102;8.856;2023-09-18T14:56:05;23.80;99.90
6333;DHT22;3199;49.102;8.856;2023-09-18T14:58:30;23.80;99.90
6333;DHT22;3199;49.102;8.856;2023-09-18T15:00:57;23.80;99.90
6333;DHT22;3199;49.102;8.856;2023-09-18T15:03:23;23.80;99.90
6333;DHT22;3199;49.102;8.856;2023-09-18T15:05:52;23.80;99.90
6333;DHT22;3199;49.102;8.856;2023-09-18T15:08:19;23.70;99.90
6333;DHT22;3199;49.102;8.856;2023-09-18T15:10:45;23.70;99.90
6333;DHT22;3199;49.102;8.856;2023-09-18T15:13:11;23.60;99.90
6333;DHT22;3199;49.102;8.856;2023-09-18T15:15:39;23.60;99.90
6333;DHT22;3199;49.102;8.856;2023-09-18T15:18:05;23.60;99.90
6333;DHT22;3199;49.102;8.856;2023-09-18T15:20:30;23.50;99.90
6333;DHT22;3199;49.102;8.856;2023-09-18T15:22:56;23.60;99.90
6333;DHT22;3199;49.102;8.856;2023-09-18T15:25:22;23.70;99.90
6333;DHT22;3199;49.102;8.856;2023-09-18T15:27:48;23.70;99.90
6333;DHT22;3199;49.102;8.856;2023-09-18T15:30:14;23.70;99.90
6333;DHT22;3199;49.102;8.856;2023-09-18T15:32:54;23.80;99.90
6333;DHT22;3199;49.102;8.856;2023-09-18T15:35:39;23.70;99.90
6333;DHT22;3199;49.102;8.856;2023-09-18T15:38:05;23.70;99.90
6333;DHT22;3199;49.102;8.856;2023-09-18T15:40:32;23.70;99.90
6333;DHT22;3199;49.102;8.856;2023-09-18T15:42:58;23.70;99.90
6333;DHT22;3199;49.102;8.856;2023-09-18T15:45:24;23.70;99.90
6333;DHT22;3199;49.102;8.856;2023-09-18T15:47:49;23.60;99.90
6333;DHT22;3199;49.102;8.856;2023-09-18T15:50:16;23.70;99.90
6333;DHT22;3199;49.102;8.856;2023-09-18T15:52:42;23.60;99.90
6333;DHT22;3199;49.102;8.856;2023-09-18T15:55:08;23.50;99.90
6333;DHT22;3199;49.102;8.856;2023-09-18T15:57:34;23.50;99.90
6333;DHT22;3199;49.102;8.856;2023-09-18T16:00:00;23.60;99.90
6333;DHT22;3199;49.102;8.856;2023-09-18T16:02:32;23.50;99.90
6333;DHT22;3199;49.102;8.856;2023-09-18T16:04:57;23.40;99.90
6333;DHT22;3199;49.102;8.856;2023-09-18T16:07:23;23.40;99.90
6333;DHT22;3199;49.102;8.856;2023-09-18T16:09:49;23.40;99.90
6333;DHT22;3199;49.102;8.856;2023-09-18T16:12:15;23.30;99.90
6333;DHT22;3199;49.102;8.856;2023-09-18T16:14:41;23.30;99.90